sensor_id;sensor_type;location;lat;lon;timestamp;temperature;humidity
210;DHT22;90;48.810;9.120;2023-04-01T00:00:59;9.80;81.90
210;DHT22;90;48.810;9.120;2023-04-01T00:03:28;9.80;81.80
210;DHT22;90;48.810;9.120;2023-04-01T00:05:55;9.70;81.80
210;DHT22;90;48.810;9.120;2023-04-01T00:08:22;9.70;82.50
210;DHT22;90;48.810;9.120;2023-04-01T00:10:49;9.80;82.00
210;DHT22;90;48.810;9.120;2023-04-01T00:13:18;9.70;82.10
210;DHT22;90;48.810;9.120;2023-04-01T00:15:45;9.80;82.00
210;DHT22;90;48.810;9.120;2023-04-01T00:18:12;9.80;81.80
210;DHT22;90;48.810;9.120;2023-04-01T00:20:39;9.80;81.60
210;DHT22;90;48.810;9.120;2023-04-01T00:23:09;9.90;81.50
210;DHT22;90;48.810;9.120;2023-04-01T00:25:36;9.80;81.50
210;DHT22;90;48.810;9.120;2023-04-01T00:28:02;9.90;81.60
210;DHT22;90;48.810;9.120;2023-04-01T00:30:31;9.90;81.40
210;DHT22;90;48.810;9.120;2023-04-01T00:32:57;9.90;81.20
210;DHT22;90;48.810;9.120;2023-04-01T00:35:25;9.90;81.30
210;DHT22;90;48.810;9.120;2023-04-01T00:37:52;9.90;81.50
210;DHT22;90;48.810;9.120;2023-04-01T00:40:26;9.80;81.40
210;DHT22;90;48.810;9.120;2023-04-01T00:42:54;9.80;81.60
210;DHT22;90;48.810;9.120;2023-04-01T00:45:34;9.90;81.40
210;DHT22;90;48.810;9.120;2023-04-01T00:48:04;9.90;81.60
210;DHT22;90;48.810;9.120;2023-04-01T00:50:33;9.90;81.60
210;DHT22;90;48.810;9.120;2023-04-01T00:53:01;9.90;81.90
210;DHT22;90;48.810;9.120;2023-04-01T00:55:32;10.00;82.00
210;DHT22;90;48.810;9.120;2023-04-01T00:58:00;9.90;82.00
210;DHT22;90;48.810;9.120;2023-04-01T01:00:28;9.90;81.90
210;DHT22;90;48.810;9.120;2023-04-01T01:02:56;9.90;81.50
210;DHT22;90;48.810;9.120;2023-04-01T01:05:29;9.90;82.10
210;DHT22;90;48.810;9.120;2023-04-01T01:08:03;9.90;82.70
210;DHT22;90;48.810;9.120;2023-04-01T01:10:35;9.80;82.80
210;DHT22;90;48.810;9.120;2023-04-01T01:13:10;9.80;83.00
210;DHT22;90;48.810;9.120;2023-04-01T01:15:43;9.80;83.30
210;DHT22;90;48.810;9.120;2023-04-01T01:18:19;9.80;83.00
210;DHT22;90;48.810;9.120;2023-04-01T01:20:59;9.80;83.10
210;DHT22;90;48.810;9.120;2023-04-01T01:23:55;9.80;83.50
210;DHT22;90;48.810;9.120;2023-04-01T01:26:46;9.80;83.40
210;DHT22;90;48.810;9.120;2023-04-01T01:32:08;9.80;82.80
210;DHT22;90;48.810;9.120;2023-04-01T01:34:42;9.80;82.70
210;DHT22;90;48.810;9.120;2023-04-01T01:37:17;9.80;82.90
210;DHT22;90;48.810;9.120;2023-04-01T01:39:51;9.90;82.70
210;DHT22;90;48.810;9.120;2023-04-01T01:42:20;9.80;83.30
210;DHT22;90;48.810;9.120;2023-04-01T01:44:50;9.80;84.30
210;DHT22;90;48.810;9.120;2023-04-01T01:47:19;9.80;84.80
210;DHT22;90;48.810;9.120;2023-04-01T01:49:48;9.80;84.90
210;DHT22;90;48.810;9.120;2023-04-01T01:52:17;9.80;85.40
210;DHT22;90;48.810;9.120;2023-04-01T01:54:47;9.80;85.30
210;DHT22;90;48.810;9.120;2023-04-01T01:57:15;9.70;86.20
210;DHT22;90;48.810;9.120;2023-04-01T01:59:44;9.70;86.70
210;DHT22;90;48.810;9.120;2023-04-01T02:02:13;9.60;87.10
210;DHT22;90;48.810;9.120;2023-04-01T02:04:43;9.60;87.20
210;DHT22;90;48.810;9.120;2023-04-01T02:07:18;9.60;87.20
210;DHT22;90;48.810;9.120;2023-04-01T02:09:47;9.60;86.80
210;DHT22;90;48.810;9.120;2023-04-01T02:12:16;9.60;86.40
210;DHT22;90;48.810;9.120;2023-04-01T02:14:49;9.60;86.50
210;DHT22;90;48.810;9.120;2023-04-01T02:17:18;9.60;86.30
210;DHT22;90;48.810;9.120;2023-04-01T02:19:48;9.70;85.80
210;DHT22;90;48.810;9.120;2023-04-01T02:22:20;9.60;85.80
210;DHT22;90;48.810;9.120;2023-04-01T02:24:48;9.60;85.90
210;DHT22;90;48.810;9.120;2023-04-01T02:27:16;9.70;85.60
210;DHT22;90;48.810;9.120;2023-04-01T02:29:43;9.70;84.90
210;DHT22;90;48.810;9.120;2023-04-01T02:32:10;9.60;85.00
210;DHT22;90;48.810;9.120;2023-04-01T02:34:39;9.70;85.20
210;DHT22;90;48.810;9.120;2023-04-01T02:37:05;9.70;84.80
210;DHT22;90;48.810;9.120;2023-04-01T02:39:34;9.60;85.00
210;DHT22;90;48.810;9.120;2023-04-01T02:42:01;9.60;85.30
210;DHT22;90;48.810;9.120;2023-04-01T02:44:27;9.60;85.60
210;DHT22;90;48.810;9.120;2023-04-01T02:46:54;9.50;85.40
210;DHT22;90;48.810;9.120;2023-04-01T02:49:21;9.50;85.40
210;DHT22;90;48.810;9.120;2023-04-01T02:51:48;9.60;85.20
210;DHT22;90;48.810;9.120;2023-04-01T02:54:15;9.50;85.20
210;DHT22;90;48.810;9.120;2023-04-01T02:56:43;9.60;85.30
210;DHT22;90;48.810;9.120;2023-04-01T02:59:11;9.60;84.90
210;DHT22;90;48.810;9.120;2023-04-01T03:01:38;9.60;84.30
210;DHT22;90;48.810;9.120;2023-04-01T03:04:05;9.60;84.40
210;DHT22;90;48.810;9.120;2023-04-01T03:06:31;9.50;84.30
210;DHT22;90;48.810;9.120;2023-04-01T03:09:00;9.50;84.30
210;DHT22;90;48.810;9.120;2023-04-01T03:11:27;9.60;84.40
210;DHT22;90;48.810;9.120;2023-04-01T03:13:55;9.50;84.40
210;DHT22;90;48.810;9.120;2023-04-01T03:16:22;9.50;84.40
210;DHT22;90;48.810;9.120;2023-04-01T03:18:48;9.50;84.40
210;DHT22;90;48.810;9.120;2023-04-01T03:21:19;9.50;84.50
210;DHT22;90;48.810;9.120;2023-04-01T03:23:47;9.50;84.60
210;DHT22;90;48.810;9.120;2023-04-01T03:26:14;9.50;84.50
210;DHT22;90;48.810;9.120;2023-04-01T03:28:42;9.40;84.10
210;DHT22;90;48.810;9.120;2023-04-01T03:31:10;9.40;83.90
210;DHT22;90;48.810;9.120;2023-04-01T03:33:37;9.50;83.90
210;DHT22;90;48.810;9.120;2023-04-01T03:36:04;9.50;83.70
210;DHT22;90;48.810;9.120;2023-04-01T03:38:32;9.50;83.60
210;DHT22;90;48.810;9.120;2023-04-01T03:40:58;9.50;83.50
210;DHT22;90;48.810;9.120;2023-04-01T03:43:25;9.50;83.40
210;DHT22;90;48.810;9.120;2023-04-01T03:45:53;9.50;83.40
210;DHT22;90;48.810;9.120;2023-04-01T03:48:23;9.50;83.10
210;DHT22;90;48.810;9.120;2023-04-01T03:50:50;9.50;82.90
210;DHT22;90;48.810;9.120;2023-04-01T03:53:17;9.50;82.40
210;DHT22;90;48.810;9.120;2023-04-01T03:55:45;9.40;82.30
210;DHT22;90;48.810;9.120;2023-04-01T03:58:12;9.40;82.00
210;DHT22;90;48.810;9.120;2023-04-01T04:00:38;9.40;82.00
210;DHT22;90;48.810;9.120;2023-04-01T04:03:06;9.40;81.60
210;DHT22;90;48.810;9.120;2023-04-01T04:05:34;9.30;81.50
210;DHT22;90;48.810;9.120;2023-04-01T04:08:01;9.30;81.50
210;DHT22;90;48.810;9.120;2023-04-01T04:10:28;9.30;81.20
210;DHT22;90;48.810;9.120;2023-04-01T04:12:56;9.20;81.50
210;DHT22;90;48.810;9.120;2023-04-01T04:15:23;9.30;81.00
210;DHT22;90;48.810;9.120;2023-04-01T04:17:49;9.30;81.00
210;DHT22;90;48.810;9.120;2023-04-01T04:20:16;9.40;80.70
210;DHT22;90;48.810;9.120;2023-04-01T04:22:44;9.40;80.20
210;DHT22;90;48.810;9.120;2023-04-01T04:25:11;9.30;80.40
210;DHT22;90;48.810;9.120;2023-04-01T04:27:38;9.30;80.30
210;DHT22;90;48.810;9.120;2023-04-01T04:30:07;9.30;80.40
210;DHT22;90;48.810;9.120;2023-04-01T04:32:34;9.40;80.30
210;DHT22;90;48.810;9.120;2023-04-01T04:35:01;9.30;80.40
210;DHT22;90;48.810;9.120;2023-04-01T04:37:29;9.20;80.80
210;DHT22;90;48.810;9.120;2023-04-01T04:39:57;9.20;81.00
210;DHT22;90;48.810;9.120;2023-04-01T04:42:23;9.20;81.00
210;DHT22;90;48.810;9.120;2023-04-01T04:44:50;9.20;81.40
210;DHT22;90;48.810;9.120;2023-04-01T04:47:17;9.10;81.70
210;DHT22;90;48.810;9.120;2023-04-01T04:49:43;9.20;81.80
210;DHT22;90;48.810;9.120;2023-04-01T04:52:10;9.20;81.50
210;DHT22;90;48.810;9.120;2023-04-01T04:54:37;9.20;81.60
210;DHT22;90;48.810;9.120;2023-04-01T04:57:05;9.10;82.40
210;DHT22;90;48.810;9.120;2023-04-01T04:59:32;9.10;82.60
210;DHT22;90;48.810;9.120;2023-04-01T05:01:59;9.00;82.40
210;DHT22;90;48.810;9.120;2023-04-01T05:04:25;9.10;82.50
210;DHT22;90;48.810;9.120;2023-04-01T05:06:52;9.10;82.50
210;DHT22;90;48.810;9.120;2023-04-01T05:09:19;9.10;82.60
210;DHT22;90;48.810;9.120;2023-04-01T05:11:45;9.10;82.60
210;DHT22;90;48.810;9.120;2023-04-01T05:14:14;9.10;82.50
210;DHT22;90;48.810;9.120;2023-04-01T05:16:41;9.00;83.00
210;DHT22;90;48.810;9.120;2023-04-01T05:19:08;9.00;83.10
210;DHT22;90;48.810;9.120;2023-04-01T05:21:35;9.00;83.20
210;DHT22;90;48.810;9.120;2023-04-01T05:24:01;9.10;82.80
210;DHT22;90;48.810;9.120;2023-04-01T05:26:28;9.00;82.80
210;DHT22;90;48.810;9.120;2023-04-01T05:28:55;9.00;83.00
210;DHT22;90;48.810;9.120;2023-04-01T05:31:23;9.00;82.90
210;DHT22;90;48.810;9.120;2023-04-01T05:33:51;9.10;82.40
210;DHT22;90;48.810;9.120;2023-04-01T05:36:18;9.10;82.20
210;DHT22;90;48.810;9.120;2023-04-01T05:38:45;9.20;81.90
210;DHT22;90;48.810;9.120;2023-04-01T05:41:13;9.20;81.60
210;DHT22;90;48.810;9.120;2023-04-01T05:43:40;9.20;81.60
210;DHT22;90;48.810;9.120;2023-04-01T05:46:07;9.20;81.80
210;DHT22;90;48.810;9.120;2023-04-01T05:48:35;9.20;81.70
210;DHT22;90;48.810;9.120;2023-04-01T05:51:02;9.20;81.30
210;DHT22;90;48.810;9.120;2023-04-01T05:53:29;9.30;81.30
210;DHT22;90;48.810;9.120;2023-04-01T05:55:56;9.30;80.70
210;DHT22;90;48.810;9.120;2023-04-01T05:58:22;9.30;80.40
210;DHT22;90;48.810;9.120;2023-04-01T06:00:49;9.40;80.00
210;DHT22;90;48.810;9.120;2023-04-01T06:03:16;9.40;80.30
210;DHT22;90;48.810;9.120;2023-04-01T06:05:44;9.40;80.40
210;DHT22;90;48.810;9.120;2023-04-01T06:08:12;9.50;80.20
210;DHT22;90;48.810;9.120;2023-04-01T06:10:51;9.50;80.20
210;DHT22;90;48.810;9.120;2023-04-01T06:13:29;9.50;79.60
210;DHT22;90;48.810;9.120;2023-04-01T06:16:07;9.60;79.90
210;DHT22;90;48.810;9.120;2023-04-01T06:18:57;9.70;79.80
210;DHT22;90;48.810;9.120;2023-04-01T06:21:55;9.80;78.80
210;DHT22;90;48.810;9.120;2023-04-01T06:24:40;9.80;78.80
210;DHT22;90;48.810;9.120;2023-04-01T06:27:18;9.90;78.80
210;DHT22;90;48.810;9.120;2023-04-01T06:29:58;9.90;78.60
210;DHT22;90;48.810;9.120;2023-04-01T06:32:47;9.90;78.80
210;DHT22;90;48.810;9.120;2023-04-01T06:35:31;9.90;78.70
210;DHT22;90;48.810;9.120;2023-04-01T06:38:28;9.90;78.70
210;DHT22;90;48.810;9.120;2023-04-01T06:41:21;9.90;78.60
210;DHT22;90;48.810;9.120;2023-04-01T06:43:56;9.90;78.20
210;DHT22;90;48.810;9.120;2023-04-01T06:46:31;9.90;78.70
210;DHT22;90;48.810;9.120;2023-04-01T06:49:08;9.90;78.60
210;DHT22;90;48.810;9.120;2023-04-01T06:51:45;9.90;78.50
210;DHT22;90;48.810;9.120;2023-04-01T06:54:18;9.90;78.60
210;DHT22;90;48.810;9.120;2023-04-01T06:56:51;9.90;78.60
210;DHT22;90;48.810;9.120;2023-04-01T06:59:22;9.80;78.90
210;DHT22;90;48.810;9.120;2023-04-01T07:01:53;9.80;79.40
210;DHT22;90;48.810;9.120;2023-04-01T07:04:24;9.90;79.20
210;DHT22;90;48.810;9.120;2023-04-01T07:06:57;9.90;78.90
210;DHT22;90;48.810;9.120;2023-04-01T07:09:28;9.90;78.80
210;DHT22;90;48.810;9.120;2023-04-01T07:12:02;9.90;79.60
210;DHT22;90;48.810;9.120;2023-04-01T07:14:33;10.00;79.10
210;DHT22;90;48.810;9.120;2023-04-01T07:17:05;10.00;79.70
210;DHT22;90;48.810;9.120;2023-04-01T07:19:39;10.00;79.50
210;DHT22;90;48.810;9.120;2023-04-01T07:22:18;10.00;79.30
210;DHT22;90;48.810;9.120;2023-04-01T07:24:48;9.90;79.00
210;DHT22;90;48.810;9.120;2023-04-01T07:27:16;10.00;79.50
210;DHT22;90;48.810;9.120;2023-04-01T07:29:43;10.40;85.10
210;DHT22;90;48.810;9.120;2023-04-01T07:32:16;10.30;78.30
210;DHT22;90;48.810;9.120;2023-04-01T07:34:53;10.30;78.30
210;DHT22;90;48.810;9.120;2023-04-01T07:37:28;10.20;78.50
210;DHT22;90;48.810;9.120;2023-04-01T07:40:08;10.20;81.60
210;DHT22;90;48.810;9.120;2023-04-01T07:42:44;10.10;78.50
210;DHT22;90;48.810;9.120;2023-04-01T07:45:20;10.10;79.30
210;DHT22;90;48.810;9.120;2023-04-01T07:48:09;10.10;79.80
210;DHT22;90;48.810;9.120;2023-04-01T07:50:42;10.20;79.10
210;DHT22;90;48.810;9.120;2023-04-01T07:53:16;10.20;79.20
210;DHT22;90;48.810;9.120;2023-04-01T07:55:52;10.20;79.50
210;DHT22;90;48.810;9.120;2023-04-01T07:58:25;10.20;79.40
210;DHT22;90;48.810;9.120;2023-04-01T08:00:58;10.30;79.50
210;DHT22;90;48.810;9.120;2023-04-01T08:03:35;10.30;79.70
210;DHT22;90;48.810;9.120;2023-04-01T08:06:08;10.30;79.20
210;DHT22;90;48.810;9.120;2023-04-01T08:08:46;10.30;78.90
210;DHT22;90;48.810;9.120;2023-04-01T08:11:28;10.40;79.30
210;DHT22;90;48.810;9.120;2023-04-01T08:14:04;10.30;79.20
210;DHT22;90;48.810;9.120;2023-04-01T08:16:36;10.30;79.40
210;DHT22;90;48.810;9.120;2023-04-01T08:19:12;10.30;79.30
210;DHT22;90;48.810;9.120;2023-04-01T08:21:43;10.30;79.50
210;DHT22;90;48.810;9.120;2023-04-01T08:24:20;10.40;79.80
210;DHT22;90;48.810;9.120;2023-04-01T08:26:53;10.40;79.90
210;DHT22;90;48.810;9.120;2023-04-01T08:29:22;10.50;79.70
210;DHT22;90;48.810;9.120;2023-04-01T08:31:51;10.40;79.80
210;DHT22;90;48.810;9.120;2023-04-01T08:34:23;10.40;80.10
210;DHT22;90;48.810;9.120;2023-04-01T08:36:52;10.40;80.60
210;DHT22;90;48.810;9.120;2023-04-01T08:39:24;10.40;81.00
210;DHT22;90;48.810;9.120;2023-04-01T08:45:34;10.30;82.40
210;DHT22;90;48.810;9.120;2023-04-01T08:48:27;10.20;83.50
210;DHT22;90;48.810;9.120;2023-04-01T08:51:27;10.00;83.80
210;DHT22;90;48.810;9.120;2023-04-01T08:54:19;10.00;85.40
210;DHT22;90;48.810;9.120;2023-04-01T08:57:00;9.90;85.90
210;DHT22;90;48.810;9.120;2023-04-01T08:59:38;9.90;85.60
210;DHT22;90;48.810;9.120;2023-04-01T09:02:39;9.90;86.20
210;DHT22;90;48.810;9.120;2023-04-01T09:05:29;9.90;86.30
210;DHT22;90;48.810;9.120;2023-04-01T09:08:12;9.90;85.20
210;DHT22;90;48.810;9.120;2023-04-01T09:10:59;10.00;85.40
210;DHT22;90;48.810;9.120;2023-04-01T09:13:51;9.90;85.30
210;DHT22;90;48.810;9.120;2023-04-01T09:16:38;9.90;85.50
210;DHT22;90;48.810;9.120;2023-04-01T09:19:17;10.00;84.80
210;DHT22;90;48.810;9.120;2023-04-01T09:22:10;10.00;83.90
210;DHT22;90;48.810;9.120;2023-04-01T09:25:06;10.10;84.10
210;DHT22;90;48.810;9.120;2023-04-01T09:27:44;10.20;84.10
210;DHT22;90;48.810;9.120;2023-04-01T09:30:33;10.30;84.10
210;DHT22;90;48.810;9.120;2023-04-01T09:33:36;10.40;82.70
210;DHT22;90;48.810;9.120;2023-04-01T09:36:18;10.40;82.20
210;DHT22;90;48.810;9.120;2023-04-01T09:38:57;10.40;82.60
210;DHT22;90;48.810;9.120;2023-04-01T09:41:29;10.50;83.80
210;DHT22;90;48.810;9.120;2023-04-01T09:44:01;10.50;82.10
210;DHT22;90;48.810;9.120;2023-04-01T09:46:43;10.50;82.70
210;DHT22;90;48.810;9.120;2023-04-01T09:49:26;10.60;80.60
210;DHT22;90;48.810;9.120;2023-04-01T09:52:08;10.60;81.70
210;DHT22;90;48.810;9.120;2023-04-01T09:54:50;10.60;80.60
210;DHT22;90;48.810;9.120;2023-04-01T10:00:52;10.50;80.40
210;DHT22;90;48.810;9.120;2023-04-01T10:03:51;10.50;80.80
210;DHT22;90;48.810;9.120;2023-04-01T10:06:57;10.50;80.90
210;DHT22;90;48.810;9.120;2023-04-01T10:10:08;10.60;79.30
210;DHT22;90;48.810;9.120;2023-04-01T10:16:19;10.50;77.80
210;DHT22;90;48.810;9.120;2023-04-01T10:19:02;10.60;78.40
210;DHT22;90;48.810;9.120;2023-04-01T10:21:57;10.90;79.10
210;DHT22;90;48.810;9.120;2023-04-01T10:24:47;11.00;77.30
210;DHT22;90;48.810;9.120;2023-04-01T10:30:32;11.10;76.40
210;DHT22;90;48.810;9.120;2023-04-01T10:33:22;11.00;77.00
210;DHT22;90;48.810;9.120;2023-04-01T10:39:07;10.90;76.60
210;DHT22;90;48.810;9.120;2023-04-01T10:42:06;10.80;76.60
210;DHT22;90;48.810;9.120;2023-04-01T10:48:14;10.90;76.90
210;DHT22;90;48.810;9.120;2023-04-01T10:51:12;11.30;81.00
210;DHT22;90;48.810;9.120;2023-04-01T10:53:50;11.30;74.90
210;DHT22;90;48.810;9.120;2023-04-01T10:56:36;11.20;74.90
210;DHT22;90;48.810;9.120;2023-04-01T11:09:12;10.90;76.00
210;DHT22;90;48.810;9.120;2023-04-01T11:12:19;10.90;75.90
210;DHT22;90;48.810;9.120;2023-04-01T11:15:31;11.10;76.00
210;DHT22;90;48.810;9.120;2023-04-01T11:27:00;11.60;73.10
210;DHT22;90;48.810;9.120;2023-04-01T11:29:51;11.60;73.00
210;DHT22;90;48.810;9.120;2023-04-01T11:35:44;11.80;73.20
210;DHT22;90;48.810;9.120;2023-04-01T11:38:23;11.80;73.30
210;DHT22;90;48.810;9.120;2023-04-01T11:40:59;11.70;73.00
210;DHT22;90;48.810;9.120;2023-04-01T11:43:34;11.60;72.50
210;DHT22;90;48.810;9.120;2023-04-01T11:46:10;11.60;72.40
210;DHT22;90;48.810;9.120;2023-04-01T11:48:42;11.60;73.00
210;DHT22;90;48.810;9.120;2023-04-01T11:51:25;11.60;72.80
210;DHT22;90;48.810;9.120;2023-04-01T11:53:59;11.70;73.30
210;DHT22;90;48.810;9.120;2023-04-01T11:56:45;11.60;73.40
210;DHT22;90;48.810;9.120;2023-04-01T11:59:32;11.60;72.60
210;DHT22;90;48.810;9.120;2023-04-01T12:02:09;11.50;72.90
210;DHT22;90;48.810;9.120;2023-04-01T12:04:54;11.40;73.40
210;DHT22;90;48.810;9.120;2023-04-01T12:10:17;11.30;74.80
210;DHT22;90;48.810;9.120;2023-04-01T12:12:51;11.40;74.10
210;DHT22;90;48.810;9.120;2023-04-01T12:15:26;11.30;74.50
210;DHT22;90;48.810;9.120;2023-04-01T12:18:00;11.40;75.80
210;DHT22;90;48.810;9.120;2023-04-01T12:20:36;11.40;76.60
210;DHT22;90;48.810;9.120;2023-04-01T12:23:17;11.30;77.30
210;DHT22;90;48.810;9.120;2023-04-01T12:26:03;11.30;75.60
210;DHT22;90;48.810;9.120;2023-04-01T12:28:44;11.30;75.60
210;DHT22;90;48.810;9.120;2023-04-01T12:31:30;11.30;75.80
210;DHT22;90;48.810;9.120;2023-04-01T12:37:08;11.40;74.70
210;DHT22;90;48.810;9.120;2023-04-01T12:39:56;11.50;74.60
210;DHT22;90;48.810;9.120;2023-04-01T12:45:28;11.70;72.50
210;DHT22;90;48.810;9.120;2023-04-01T12:48:24;11.60;73.40
210;DHT22;90;48.810;9.120;2023-04-01T12:54:18;11.80;73.10
210;DHT22;90;48.810;9.120;2023-04-01T12:56:56;11.80;72.90
210;DHT22;90;48.810;9.120;2023-04-01T12:59:40;11.80;72.50
210;DHT22;90;48.810;9.120;2023-04-01T13:02:13;11.70;72.70
210;DHT22;90;48.810;9.120;2023-04-01T13:05:11;11.70;73.00
210;DHT22;90;48.810;9.120;2023-04-01T13:07:53;11.60;73.80
210;DHT22;90;48.810;9.120;2023-04-01T13:10:41;11.50;73.70
210;DHT22;90;48.810;9.120;2023-04-01T13:13:23;11.60;74.40
210;DHT22;90;48.810;9.120;2023-04-01T13:15:58;11.60;74.50
210;DHT22;90;48.810;9.120;2023-04-01T13:18:32;11.60;74.50
210;DHT22;90;48.810;9.120;2023-04-01T13:21:10;11.60;74.60
210;DHT22;90;48.810;9.120;2023-04-01T13:23:49;11.60;74.60
210;DHT22;90;48.810;9.120;2023-04-01T13:26:22;11.50;74.00
210;DHT22;90;48.810;9.120;2023-04-01T13:28:59;11.40;73.90
210;DHT22;90;48.810;9.120;2023-04-01T13:31:42;11.50;74.00
210;DHT22;90;48.810;9.120;2023-04-01T13:34:26;11.60;73.60
210;DHT22;90;48.810;9.120;2023-04-01T13:37:06;11.50;73.40
210;DHT22;90;48.810;9.120;2023-04-01T13:40:05;11.50;73.10
210;DHT22;90;48.810;9.120;2023-04-01T13:42:41;11.60;73.60
210;DHT22;90;48.810;9.120;2023-04-01T13:45:15;11.50;73.70
210;DHT22;90;48.810;9.120;2023-04-01T13:47:57;11.50;72.60
210;DHT22;90;48.810;9.120;2023-04-01T13:50:46;11.50;72.80
210;DHT22;90;48.810;9.120;2023-04-01T13:53:39;11.50;72.50
210;DHT22;90;48.810;9.120;2023-04-01T13:56:25;11.40;73.20
210;DHT22;90;48.810;9.120;2023-04-01T13:59:07;11.70;74.70
210;DHT22;90;48.810;9.120;2023-04-01T14:01:41;11.60;72.20
210;DHT22;90;48.810;9.120;2023-04-01T14:04:49;11.60;73.20
210;DHT22;90;48.810;9.120;2023-04-01T14:07:37;11.50;73.10
210;DHT22;90;48.810;9.120;2023-04-01T14:10:17;11.50;73.40
210;DHT22;90;48.810;9.120;2023-04-01T14:12:50;11.40;73.70
210;DHT22;90;48.810;9.120;2023-04-01T14:15:34;11.30;74.10
210;DHT22;90;48.810;9.120;2023-04-01T14:18:16;12.20;78.40
210;DHT22;90;48.810;9.120;2023-04-01T14:20:50;12.80;74.10
210;DHT22;90;48.810;9.120;2023-04-01T14:23:39;13.40;73.30
210;DHT22;90;48.810;9.120;2023-04-01T14:26:21;13.90;69.40
210;DHT22;90;48.810;9.120;2023-04-01T14:28:56;14.20;69.70
210;DHT22;90;48.810;9.120;2023-04-01T14:31:47;13.80;66.30
210;DHT22;90;48.810;9.120;2023-04-01T14:34:33;12.90;69.00
210;DHT22;90;48.810;9.120;2023-04-01T14:37:19;12.30;71.60
210;DHT22;90;48.810;9.120;2023-04-01T14:40:20;11.90;73.50
210;DHT22;90;48.810;9.120;2023-04-01T14:43:16;12.00;73.70
210;DHT22;90;48.810;9.120;2023-04-01T14:46:10;11.80;74.50
210;DHT22;90;48.810;9.120;2023-04-01T14:48:48;11.70;75.60
210;DHT22;90;48.810;9.120;2023-04-01T14:51:18;11.80;73.90
210;DHT22;90;48.810;9.120;2023-04-01T14:53:56;11.60;74.00
210;DHT22;90;48.810;9.120;2023-04-01T14:56:36;11.50;74.20
210;DHT22;90;48.810;9.120;2023-04-01T14:59:09;11.40;74.80
210;DHT22;90;48.810;9.120;2023-04-01T15:01:43;11.50;74.60
210;DHT22;90;48.810;9.120;2023-04-01T15:04:43;11.40;75.50
210;DHT22;90;48.810;9.120;2023-04-01T15:07:35;11.50;75.30
210;DHT22;90;48.810;9.120;2023-04-01T15:10:27;11.50;75.50
210;DHT22;90;48.810;9.120;2023-04-01T15:13:05;11.40;75.10
210;DHT22;90;48.810;9.120;2023-04-01T15:15:47;11.30;75.50
210;DHT22;90;48.810;9.120;2023-04-01T15:18:18;11.20;76.00
210;DHT22;90;48.810;9.120;2023-04-01T15:21:01;11.30;76.00
210;DHT22;90;48.810;9.120;2023-04-01T15:23:42;11.30;75.90
210;DHT22;90;48.810;9.120;2023-04-01T15:26:21;11.30;75.60
210;DHT22;90;48.810;9.120;2023-04-01T15:29:00;11.30;76.20
210;DHT22;90;48.810;9.120;2023-04-01T15:31:34;11.30;76.50
210;DHT22;90;48.810;9.120;2023-04-01T15:34:18;11.40;76.20
210;DHT22;90;48.810;9.120;2023-04-01T15:36:55;11.50;75.90
210;DHT22;90;48.810;9.120;2023-04-01T15:39:30;11.50;75.50
210;DHT22;90;48.810;9.120;2023-04-01T15:42:16;11.40;75.90
210;DHT22;90;48.810;9.120;2023-04-01T15:44:58;11.30;75.80
210;DHT22;90;48.810;9.120;2023-04-01T15:47:36;11.40;75.50
210;DHT22;90;48.810;9.120;2023-04-01T15:50:41;11.40;75.20
210;DHT22;90;48.810;9.120;2023-04-01T15:53:22;11.30;75.10
210;DHT22;90;48.810;9.120;2023-04-01T15:55:56;11.40;75.30
210;DHT22;90;48.810;9.120;2023-04-01T15:58:40;11.40;74.90
210;DHT22;90;48.810;9.120;2023-04-01T16:01:18;11.40;74.90
210;DHT22;90;48.810;9.120;2023-04-01T16:03:54;11.30;75.20
210;DHT22;90;48.810;9.120;2023-04-01T16:06:51;11.30;74.80
210;DHT22;90;48.810;9.120;2023-04-01T16:09:37;11.30;74.40
210;DHT22;90;48.810;9.120;2023-04-01T16:12:15;11.20;74.10
210;DHT22;90;48.810;9.120;2023-04-01T16:14:53;11.20;74.30
210;DHT22;90;48.810;9.120;2023-04-01T16:17:35;11.20;73.50
210;DHT22;90;48.810;9.120;2023-04-01T16:20:18;11.20;73.60
210;DHT22;90;48.810;9.120;2023-04-01T16:22:50;11.10;73.90
210;DHT22;90;48.810;9.120;2023-04-01T16:25:26;11.10;74.00
210;DHT22;90;48.810;9.120;2023-04-01T16:28:09;11.10;73.70
210;DHT22;90;48.810;9.120;2023-04-01T16:30:44;11.10;73.00
210;DHT22;90;48.810;9.120;2023-04-01T16:33:20;11.00;73.60
210;DHT22;90;48.810;9.120;2023-04-01T16:35:54;11.00;74.00
210;DHT22;90;48.810;9.120;2023-04-01T16:38:25;11.00;73.70
210;DHT22;90;48.810;9.120;2023-04-01T16:41:05;11.00;74.40
210;DHT22;90;48.810;9.120;2023-04-01T16:43:38;11.00;74.20
210;DHT22;90;48.810;9.120;2023-04-01T16:46:33;11.00;74.40
210;DHT22;90;48.810;9.120;2023-04-01T16:49:13;10.90;74.80
210;DHT22;90;48.810;9.120;2023-04-01T16:51:47;10.90;75.10
210;DHT22;90;48.810;9.120;2023-04-01T16:54:25;10.90;75.50
210;DHT22;90;48.810;9.120;2023-04-01T16:56:55;10.90;75.70
210;DHT22;90;48.810;9.120;2023-04-01T16:59:25;10.90;75.70
210;DHT22;90;48.810;9.120;2023-04-01T17:01:57;10.90;76.40
210;DHT22;90;48.810;9.120;2023-04-01T17:04:33;10.90;76.20
210;DHT22;90;48.810;9.120;2023-04-01T17:07:15;11.00;76.40
210;DHT22;90;48.810;9.120;2023-04-01T17:10:10;11.00;76.20
210;DHT22;90;48.810;9.120;2023-04-01T17:12:46;11.10;76.20
210;DHT22;90;48.810;9.120;2023-04-01T17:15:20;11.10;76.00
210;DHT22;90;48.810;9.120;2023-04-01T17:17:52;11.10;76.20
210;DHT22;90;48.810;9.120;2023-04-01T17:20:32;11.10;77.50
210;DHT22;90;48.810;9.120;2023-04-01T17:23:12;11.80;76.90
210;DHT22;90;48.810;9.120;2023-04-01T17:28:41;11.80;74.30
210;DHT22;90;48.810;9.120;2023-04-01T17:31:20;11.80;74.50
210;DHT22;90;48.810;9.120;2023-04-01T17:36:58;12.00;75.70
210;DHT22;90;48.810;9.120;2023-04-01T17:39:44;12.00;74.30
210;DHT22;90;48.810;9.120;2023-04-01T17:42:16;12.10;74.20
210;DHT22;90;48.810;9.120;2023-04-01T17:44:52;12.00;73.90
210;DHT22;90;48.810;9.120;2023-04-01T17:47:31;11.80;74.40
210;DHT22;90;48.810;9.120;2023-04-01T17:50:10;11.80;74.50
210;DHT22;90;48.810;9.120;2023-04-01T17:52:45;11.50;75.10
210;DHT22;90;48.810;9.120;2023-04-01T17:55:50;11.40;76.90
210;DHT22;90;48.810;9.120;2023-04-01T17:58:26;11.30;78.30
210;DHT22;90;48.810;9.120;2023-04-01T18:01:10;11.20;79.10
210;DHT22;90;48.810;9.120;2023-04-01T18:03:57;11.00;81.00
210;DHT22;90;48.810;9.120;2023-04-01T18:06:34;10.80;82.30
210;DHT22;90;48.810;9.120;2023-04-01T18:09:08;10.70;83.30
210;DHT22;90;48.810;9.120;2023-04-01T18:11:48;10.70;83.60
210;DHT22;90;48.810;9.120;2023-04-01T18:14:36;10.70;84.30
210;DHT22;90;48.810;9.120;2023-04-01T18:17:21;10.60;85.40
210;DHT22;90;48.810;9.120;2023-04-01T18:20:02;10.60;85.70
210;DHT22;90;48.810;9.120;2023-04-01T18:22:38;10.50;86.00
210;DHT22;90;48.810;9.120;2023-04-01T18:25:16;10.50;86.00
210;DHT22;90;48.810;9.120;2023-04-01T18:27:48;10.60;86.70
210;DHT22;90;48.810;9.120;2023-04-01T18:30:17;10.60;85.80
210;DHT22;90;48.810;9.120;2023-04-01T18:32:52;10.50;85.60
210;DHT22;90;48.810;9.120;2023-04-01T18:35:29;10.40;85.50
210;DHT22;90;48.810;9.120;2023-04-01T18:38:00;10.40;85.50
210;DHT22;90;48.810;9.120;2023-04-01T18:40:34;10.50;85.10
210;DHT22;90;48.810;9.120;2023-04-01T18:43:16;10.40;83.90
210;DHT22;90;48.810;9.120;2023-04-01T18:45:53;10.40;83.30
210;DHT22;90;48.810;9.120;2023-04-01T18:48:47;10.30;83.40
210;DHT22;90;48.810;9.120;2023-04-01T18:51:19;10.20;82.70
210;DHT22;90;48.810;9.120;2023-04-01T18:53:53;10.20;82.40
210;DHT22;90;48.810;9.120;2023-04-01T18:56:29;10.20;81.60
210;DHT22;90;48.810;9.120;2023-04-01T18:59:04;10.20;80.90
210;DHT22;90;48.810;9.120;2023-04-01T19:01:37;10.20;80.90
210;DHT22;90;48.810;9.120;2023-04-01T19:04:14;10.10;80.80